Terminal Aerodrome Forecast
Issued by NWS

Home | Current Version | Previous Version | Text Only | Print | Product List | Glossary On
Versions: 1 2 3 4 5 6 7 8 9 10 11 12 13 14 15 16 17
000
FTUS41 KLWX 261700
TAFMTN
TAF
KMTN 261737Z 2618/2718 32010G18KT 1SM -SN OVC008
     FM262100 33010G18KT 3SM -RASN OVC008
     FM270000 30010KT P6SM BKN025
     FM270400 28007KT P6SM BKN050
     FM270800 VRB03KT P6SM BKN050
     FM271600 30007KT P6SM BKN050=

USA.gov is the U.S. government's official web portal to all federal, state and local government web resources and services.